Terminal Aerodrome Forecast
Issued by NWS Rapid City, SD

Home | Current Version | Previous Version | Graphics & Text | Print | Product List | Glossary On
Versions: 1 2 3 4 5 6 7 8 9 10 11 12 13 14 15 16 17 18 19 20 21 22 23 24 25 26 27 28 29 30 31 32 33
492
FTUS43 KUNR 101120
TAFRAP
TAF
KRAP 101120Z 1012/1112 32010KT P6SM SCT250 WS015/32045KT
     FM101700 33018G28KT P6SM SCT250
     FM110000 34011KT P6SM SCT200
     FM110800 13003KT 1/2SM FG OVC006=

USA.gov is the U.S. government's official web portal to all federal, state and local government web resources and services.